»·PEaware :: DAL601 KSLC-KBOI

DAL601 :: KSLC-KBOI

FLIGHT INFORMATION

Flight Status: Arrived
Operator:
Delta Air Lines
More flights by this operator :: More flights under this callsign
Pilot: Joe P. (13940)
Aircraft: BOEING 737-700
(B737)
More flights by this aircraft type
Origin: KSLC Salt Lake City Intl
United States
Destination: KBOI Boise Air Terminal/Gowen
United States
More flights between these airports :: More routes between these airports
Route: CGULL1 TWF BROPH SPUUD3
File this flight plan on PilotEdge
Remarks: KTWF -PBN / A1B1C1D1L1O1S1 NAV / RNVD1E2A1 DOF / 180805 REG / N389DA RVR / 200 PER / C
Altitude:
(Current/Filed)
320ft
Speed:
(Current/Filed)
462kts
Departed: 05-Aug-18 05:53 AM
Arrived: 05-Aug-18 06:47 AM
Distance/Time
Traveled:
252nm/0:53
Distance/Time
To Go:
Arrived

Flight Plot

Page will automatically refresh every two minutes.

Flight plan parsing failed; only flown route is shown


Map Options




Map Legend


Flown Route
Filed Route
Departure Airport
Arrival Airport
Navaid (VOR, NDB)
Fix

Horizontal Profiles

Position Reports

Time Latitude Longitude Heading Altitude Ground
Speed
05-Aug-18 04:45 40.789075 -111.985536 130 4235ft 0kts
05-Aug-18 04:46 40.789075 -111.985536 130 4235ft 0kts
05-Aug-18 04:47 40.789075 -111.985536 130 4235ft 0kts
05-Aug-18 04:48 40.789075 -111.985536 130 4235ft 0kts
05-Aug-18 04:49 40.789075 -111.985536 130 4235ft 0kts
05-Aug-18 04:50 40.789075 -111.985536 130 4235ft 0kts
05-Aug-18 04:51 40.789075 -111.985536 130 4235ft 0kts
05-Aug-18 04:52 40.789075 -111.985536 130 4235ft 0kts
05-Aug-18 04:53 40.789075 -111.985536 130 4235ft 0kts
05-Aug-18 04:54 40.789075 -111.985536 130 4235ft 0kts
05-Aug-18 04:55 40.789075 -111.985536 130 4235ft 0kts
05-Aug-18 04:56 40.789075 -111.985536 130 4235ft 0kts
05-Aug-18 04:57 40.789075 -111.985536 130 4235ft 0kts
05-Aug-18 04:58 40.789075 -111.985536 130 4235ft 0kts
05-Aug-18 04:59 40.789075 -111.985536 130 4235ft 0kts
05-Aug-18 05:00 40.789075 -111.985536 130 4235ft 0kts
05-Aug-18 05:01 40.789075 -111.985536 130 4235ft 0kts
05-Aug-18 05:02 40.789075 -111.985536 130 4235ft 0kts
05-Aug-18 05:03 40.789075 -111.985536 130 4235ft 0kts
05-Aug-18 05:04 40.789075 -111.985536 130 4235ft 0kts
05-Aug-18 05:05 40.789075 -111.985536 130 4235ft 0kts
05-Aug-18 05:06 40.789075 -111.985536 130 4235ft 0kts
05-Aug-18 05:07 40.789075 -111.985536 130 4235ft 0kts
05-Aug-18 05:08 40.789075 -111.985536 130 4235ft 0kts
05-Aug-18 05:09 40.789075 -111.985536 130 4235ft 0kts
05-Aug-18 05:10 40.789075 -111.985536 130 4235ft 0kts
05-Aug-18 05:11 40.789075 -111.985536 130 4235ft 0kts
05-Aug-18 05:12 40.789075 -111.985536 130 4235ft 0kts
05-Aug-18 05:13 40.789075 -111.985536 130 4235ft 0kts
05-Aug-18 05:14 40.789075 -111.985536 130 4235ft 0kts
05-Aug-18 05:15 40.789075 -111.985536 130 4235ft 0kts
05-Aug-18 05:16 40.789075 -111.985536 130 4235ft 0kts
05-Aug-18 05:17 40.789075 -111.985536 130 4235ft 0kts
05-Aug-18 05:18 40.789075 -111.985536 130 4235ft 0kts
05-Aug-18 05:19 40.789075 -111.985536 130 4235ft 0kts
05-Aug-18 05:20 40.789075 -111.985536 130 4235ft 0kts
05-Aug-18 05:21 40.789075 -111.985536 130 4235ft 0kts
05-Aug-18 05:22 40.789075 -111.985536 130 4235ft 0kts
05-Aug-18 05:23 40.789075 -111.985536 130 4235ft 0kts
05-Aug-18 05:24 40.789075 -111.985536 130 4235ft 0kts
05-Aug-18 05:25 40.789075 -111.985536 130 4235ft 0kts
05-Aug-18 05:26 40.789075 -111.985536 130 4235ft 0kts
05-Aug-18 05:27 40.789075 -111.985536 130 4235ft 0kts
05-Aug-18 05:28 40.789075 -111.985536 130 4235ft 0kts
05-Aug-18 05:29 40.789075 -111.985536 130 4235ft 0kts
05-Aug-18 05:30 40.789075 -111.985536 130 4235ft 0kts
05-Aug-18 05:31 40.789075 -111.985536 130 4235ft 0kts
05-Aug-18 05:32 40.789075 -111.985536 130 4235ft 0kts
05-Aug-18 05:33 40.789075 -111.985536 130 4235ft 0kts
05-Aug-18 05:34 40.789075 -111.985536 130 4235ft 0kts
05-Aug-18 05:35 40.789075 -111.985536 130 4235ft 0kts
05-Aug-18 05:36 40.789075 -111.985536 130 4235ft 0kts
05-Aug-18 05:37 40.789075 -111.985536 130 4235ft 0kts
05-Aug-18 05:38 40.789075 -111.985536 130 4235ft 0kts
05-Aug-18 05:39 40.789075 -111.985536 130 4235ft 0kts
05-Aug-18 05:40 40.789075 -111.985536 130 4235ft 0kts
05-Aug-18 05:41 40.789075 -111.985536 130 4235ft 0kts
05-Aug-18 05:42 40.789147 -111.985646 129 4235ft 2kts
05-Aug-18 05:43 40.789432 -111.986374 81 4235ft 2kts
05-Aug-18 05:44 40.789244 -111.986634 27 4235ft 0kts
05-Aug-18 05:45 40.789244 -111.986634 27 4235ft 0kts
05-Aug-18 05:46 40.789245 -111.986634 27 4235ft 0kts
05-Aug-18 05:47 40.789246 -111.986633 27 4235ft 0kts
05-Aug-18 05:48 40.790721 -111.984566 10 4235ft 6kts
05-Aug-18 05:49 40.792579 -111.981430 82 4235ft 17kts
05-Aug-18 05:50 40.794382 -111.977673 354 4235ft 16kts
05-Aug-18 05:51 40.800046 -111.978292 355 4235ft 22kts
05-Aug-18 05:52 40.806646 -111.979043 1 4235ft 21kts
05-Aug-18 05:53 40.807537 -111.978132 96 4235ft 6kts
05-Aug-18 05:54 40.803245 -111.976390 175 4235ft 79kts
05-Aug-18 05:55 40.757437 -111.971295 183 6406ft 185kts
05-Aug-18 05:56 40.739914 -112.035688 302 8086ft 271kts
05-Aug-18 05:57 40.807939 -112.076837 337 11502ft 280kts
05-Aug-18 05:58 40.874393 -112.132797 312 14742ft 287kts
05-Aug-18 05:59 40.929975 -112.210574 304 17879ft 295kts
05-Aug-18 06:00 40.984014 -112.293545 302 20960ft 299kts
05-Aug-18 06:01 41.038658 -112.377754 302 23744ft 304kts
05-Aug-18 06:02 41.105695 -112.456252 318 25233ft 359kts
05-Aug-18 06:03 41.195407 -112.534403 314 25835ft 408kts
05-Aug-18 06:04 41.285742 -112.631854 307 27244ft 418kts
05-Aug-18 06:05 41.364594 -112.746196 304 28856ft 421kts
05-Aug-18 06:06 41.441236 -112.860918 302 31050ft 408kts
05-Aug-18 06:07 41.515368 -112.974832 302 32041ft 411kts
05-Aug-18 06:08 41.590032 -113.090030 302 32057ft 410kts
05-Aug-18 06:09 41.664690 -113.204976 302 32063ft 409kts
05-Aug-18 06:10 41.739162 -113.319951 302 32065ft 407kts
05-Aug-18 06:11 41.813040 -113.434717 302 32067ft 407kts
05-Aug-18 06:12 41.886843 -113.549890 301 32069ft 407kts
05-Aug-18 06:13 41.960612 -113.665434 302 32071ft 408kts
05-Aug-18 06:14 42.034450 -113.781158 302 32092ft 408kts
05-Aug-18 06:15 42.107856 -113.897383 301 32102ft 406kts
05-Aug-18 06:16 42.181028 -114.013448 301 32105ft 407kts
05-Aug-18 06:17 42.254483 -114.129942 301 32111ft 408kts
05-Aug-18 06:18 42.328274 -114.246582 302 32115ft 409kts
05-Aug-18 06:19 42.401960 -114.364338 302 32118ft 411kts
05-Aug-18 06:20 42.476020 -114.483248 302 32119ft 413kts
05-Aug-18 06:21 42.551082 -114.602465 303 32118ft 416kts
05-Aug-18 06:22 42.625638 -114.721837 303 30841ft 407kts
05-Aug-18 06:23 42.697441 -114.837438 304 28640ft 395kts
05-Aug-18 06:24 42.770847 -114.947418 308 26518ft 390kts
05-Aug-18 06:25 42.845323 -115.053722 308 24412ft 385kts
05-Aug-18 06:26 42.918455 -115.159304 308 22322ft 381kts
05-Aug-18 06:27 42.991170 -115.264357 309 20234ft 377kts
05-Aug-18 06:28 43.062430 -115.368373 309 18177ft 372kts
05-Aug-18 06:29 43.132333 -115.470799 310 16116ft 362kts
05-Aug-18 06:30 43.198705 -115.567937 310 15065ft 330kts
05-Aug-18 06:31 43.259007 -115.656442 310 14000ft 312kts
05-Aug-18 06:32 43.303611 -115.755769 294 12630ft 304kts
05-Aug-18 06:33 43.341301 -115.858553 296 11301ft 299kts
05-Aug-18 06:34 43.378981 -115.959476 296 10201ft 287kts
05-Aug-18 06:35 43.414196 -116.054659 297 9135ft 277kts
05-Aug-18 06:36 43.448918 -116.148926 297 7918ft 273kts
05-Aug-18 06:37 43.481923 -116.242161 295 7012ft 268kts
05-Aug-18 06:38 43.513766 -116.336379 295 6466ft 273kts
05-Aug-18 06:39 43.544745 -116.428402 295 5914ft 256kts
05-Aug-18 06:40 43.574510 -116.516853 295 5742ft 252kts
05-Aug-18 06:41 43.618607 -116.584446 4 5308ft 254kts
05-Aug-18 06:42 43.659531 -116.517097 91 4927ft 236kts
05-Aug-18 06:43 43.636445 -116.437294 115 4948ft 203kts
05-Aug-18 06:44 43.613559 -116.370313 115 4858ft 184kts
05-Aug-18 06:45 43.593798 -116.312312 116 3959ft 157kts
05-Aug-18 06:46 43.575419 -116.258410 116 3141ft 154kts
05-Aug-18 06:47 43.560640 -116.214697 113 2842ft 52kts
05-Aug-18 06:48 43.561820 -116.211496 22 2842ft 9kts
05-Aug-18 06:49 43.562046 -116.211384 17 2842ft 0kts
05-Aug-18 06:50 43.562048 -116.211384 17 2842ft 0kts
05-Aug-18 06:51 43.563514 -116.213712 294 2842ft 15kts
05-Aug-18 06:52 43.566424 -116.217936 348 2842ft 12kts
05-Aug-18 06:53 43.567237 -116.218482 269 2842ft 0kts
05-Aug-18 06:54 43.567237 -116.218482 269 2842ft 0kts
05-Aug-18 06:55 43.567237 -116.218482 269 2842ft 0kts
05-Aug-18 06:56 43.567237 -116.218482 269 2842ft 0kts
05-Aug-18 06:57 43.567237 -116.218482 269 2842ft 0kts
05-Aug-18 06:58 43.567237 -116.218482 269 2842ft 0kts

Navigation Log

Ident Type
Flight plan parsing failed, navigation log unavailable